Time;durP1;ratioP1;P1;durP2;ratioP2;P2;SDS_P1;SDS_P2;PMS_P1;PMS_P2;Temp;Humidity;BMP_temperature;BMP_pressure;BME280_temperature;BME280_humidity;BME280_pressure;Samples;Min_cycle;Max_cycle;Signal;HPM_P1;HPM_P2
2022/04/16 00:02:23;;;;;;;9.43;4.30;;;;;;;12.76;100.00;62166.16;5085434;28;20195;-72
2022/04/16 00:04:50;;;;;;;13.23;4.67;;;;;;;12.64;100.00;62156.88;5092591;28;20200;-73
2022/04/16 00:07:18;;;;;;;12.27;4.53;;;;;;;12.63;100.00;62153.25;5092464;28;20196;-72
2022/04/16 00:09:45;;;;;;;18.07;5.20;;;;;;;12.57;100.00;62146.81;5092421;28;20658;-72
2022/04/16 00:12:12;;;;;;;12.23;4.13;;;;;;;12.52;100.00;62138.88;5092581;28;20582;-72
2022/04/16 00:14:39;;;;;;;9.47;4.87;;;;;;;12.48;100.00;62132.03;5092740;28;20232;-72
2022/04/16 00:17:06;;;;;;;7.03;4.40;;;;;;;12.46;100.00;62137.56;5094466;28;20219;-71
2022/04/16 00:19:33;;;;;;;8.97;4.27;;;;;;;12.47;100.00;62136.09;5093652;28;20631;-71
2022/04/16 00:22:00;;;;;;;9.43;4.60;;;;;;;12.45;100.00;62133.94;5092596;28;20195;-71
2022/04/16 00:24:28;;;;;;;8.30;4.47;;;;;;;12.42;100.00;62127.63;5092108;28;20294;-72
2022/04/16 00:26:55;;;;;;;13.23;5.03;;;;;;;12.38;100.00;62128.97;5092126;28;20231;-73
2022/04/16 00:29:22;;;;;;;15.23;5.60;;;;;;;12.33;100.00;62117.97;5092251;28;20199;-73
2022/04/16 00:31:49;;;;;;;20.47;5.40;;;;;;;12.19;100.00;62108.59;5092440;28;20200;-72
2022/04/16 00:34:15;;;;;;;11.37;4.50;;;;;;;12.01;100.00;62088.75;5091955;28;20235;-71
2022/04/16 00:36:43;;;;;;;11.77;4.67;;;;;;;12.03;100.00;62085.78;5091962;28;20268;-72
2022/04/16 00:39:10;;;;;;;14.40;4.87;;;;;;;12.01;100.00;62084.16;5091774;28;20234;-72
2022/04/16 00:41:40;;;;;;;8.70;4.83;;;;;;;11.84;100.00;62068.47;5092121;28;20202;-72
2022/04/16 00:44:07;;;;;;;7.87;4.57;;;;;;;11.83;100.00;62065.38;5091930;28;20736;-72
2022/04/16 00:46:34;;;;;;;8.60;4.30;;;;;;;11.73;100.00;62059.75;5083763;28;20199;-71
2022/04/16 00:49:02;;;;;;;10.47;5.10;;;;;;;11.66;100.00;62046.63;5092055;28;20590;-72
2022/04/16 00:51:29;;;;;;;8.50;4.43;;;;;;;11.32;100.00;62015.25;5092426;28;20195;-72
2022/04/16 00:53:56;;;;;;;9.63;4.50;;;;;;;11.47;100.00;62028.78;5092888;28;20206;-71
2022/04/16 00:56:23;;;;;;;9.20;4.87;;;;;;;11.47;100.00;62029.31;5092131;28;20195;-71
2022/04/16 00:58:51;;;;;;;11.77;4.83;;;;;;;11.52;100.00;62031.59;5091618;28;20782;-72
2022/04/16 01:01:18;;;;;;;8.67;5.23;;;;;;;11.56;100.00;62038.44;5091908;28;20660;-72
2022/04/16 01:03:45;;;;;;;8.73;4.97;;;;;;;11.44;100.00;62023.00;5091593;28;20199;-73
2022/04/16 01:06:15;;;;;;;9.73;5.40;;;;;;;11.30;100.00;62013.63;5091931;28;20200;-72
2022/04/16 01:08:44;;;;;;;12.87;5.70;;;;;;;11.23;100.00;62001.03;5091717;28;20203;-72
2022/04/16 01:11:10;;;;;;;11.90;5.70;;;;;;;11.16;100.00;61993.00;5091807;28;20200;-73
2022/04/16 01:13:37;;;;;;;19.30;5.60;;;;;;;11.07;100.00;61986.44;5091571;28;20257;-72
2022/04/16 01:16:06;;;;;;;10.63;5.90;;;;;;;10.80;100.00;61960.06;5091441;28;20254;-72
2022/04/16 01:18:33;;;;;;;10.50;5.53;;;;;;;10.68;100.00;61945.19;5091615;28;20227;-72
2022/04/16 01:21:01;;;;;;;8.10;4.60;;;;;;;10.88;100.00;61966.06;5092114;28;20199;-72
2022/04/16 01:23:30;;;;;;;7.00;4.60;;;;;;;10.90;100.00;61963.66;5091389;28;20257;-72
2022/04/16 01:25:57;;;;;;;11.63;5.43;;;;;;;10.80;100.00;61958.03;5091354;28;20205;-71
2022/04/16 01:28:24;;;;;;;11.37;5.63;;;;;;;10.71;100.00;61945.84;5091085;28;20238;-72
2022/04/16 01:30:51;;;;;;;10.30;5.80;;;;;;;10.72;100.00;61946.91;5091257;28;20736;-72
2022/04/16 01:33:18;;;;;;;11.97;5.80;;;;;;;10.76;100.00;61953.22;5091609;28;20260;-72
2022/04/16 01:35:45;;;;;;;8.43;5.70;;;;;;;10.78;100.00;61953.34;5091747;28;20728;-72
2022/04/16 01:38:12;;;;;;;12.33;5.40;;;;;;;10.76;100.00;61953.75;5091398;28;20210;-71
2022/04/16 01:40:40;;;;;;;8.10;4.87;;;;;;;10.70;100.00;61949.34;5091710;28;20351;-71
2022/04/16 01:43:08;;;;;;;7.27;4.47;;;;;;;10.48;100.00;61923.75;5095362;28;20199;-72
2022/04/16 01:45:34;;;;;;;8.67;5.07;;;;;;;10.47;100.00;61920.13;5095092;28;20204;-71
2022/04/16 01:48:03;;;;;;;6.97;4.33;;;;;;;10.51;100.00;61924.41;5095163;28;20666;-71
2022/04/16 01:50:31;;;;;;;6.40;4.30;;;;;;;10.63;100.00;61936.72;5095366;28;20633;-73
2022/04/16 01:52:57;;;;;;;6.43;4.50;;;;;;;10.62;100.00;61936.22;5095067;28;20592;-72
2022/04/16 01:55:24;;;;;;;11.43;4.70;;;;;;;10.47;100.00;61919.59;5095054;28;20253;-71
2022/04/16 01:57:53;;;;;;;9.70;4.43;;;;;;;10.63;100.00;61939.28;5095027;28;20203;-73
2022/04/16 02:00:20;;;;;;;9.33;4.43;;;;;;;10.55;100.00;61928.69;5095001;28;20613;-71
2022/04/16 02:02:47;;;;;;;11.57;4.90;;;;;;;10.56;100.00;61931.78;5094927;28;20229;-72
2022/04/16 02:05:15;;;;;;;9.70;4.90;;;;;;;10.49;100.00;61922.28;5095074;28;20196;-72
2022/04/16 02:07:41;;;;;;;12.33;4.90;;;;;;;10.43;100.00;61918.38;5095158;28;20203;-72
2022/04/16 02:10:09;;;;;;;8.13;4.33;;;;;;;10.39;100.00;61906.47;5094788;28;20200;-73
2022/04/16 02:12:38;;;;;;;6.70;5.03;;;;;;;10.25;100.00;61896.56;5094219;28;20214;-72
2022/04/16 02:15:07;;;;;;;9.83;4.47;;;;;;;10.20;100.00;61896.84;5094564;28;20680;-72
2022/04/16 02:17:34;;;;;;;7.40;4.40;;;;;;;10.11;100.00;61882.13;5094700;28;20257;-71
2022/04/16 02:20:01;;;;;;;13.80;4.80;;;;;;;10.19;100.00;61895.22;5094738;28;20236;-73
2022/04/16 02:22:38;;;;;;;6.63;4.23;;;;;;;10.18;100.00;61891.63;5094707;28;20659;-72
2022/04/16 02:25:05;;;;;;;8.93;4.27;;;;;;;10.12;100.00;61887.75;5094557;28;20195;-72
2022/04/16 02:27:34;;;;;;;7.43;4.50;;;;;;;10.00;100.00;61872.31;5094737;28;20257;-72
2022/04/16 02:30:01;;;;;;;6.33;4.23;;;;;;;10.03;100.00;61878.06;5094926;28;20211;-72
2022/04/16 02:32:30;;;;;;;7.17;4.70;;;;;;;9.97;100.00;61869.09;5094528;28;20198;-74
2022/04/16 02:34:57;;;;;;;6.97;4.03;;;;;;;9.97;100.00;61866.56;5094453;28;20280;-74
2022/04/16 02:37:24;;;;;;;9.17;4.70;;;;;;;10.02;100.00;61874.47;5094370;28;20197;-72
2022/04/16 02:39:51;;;;;;;6.13;4.50;;;;;;;10.05;100.00;61875.66;5094586;28;20280;-73
2022/04/16 02:42:19;;;;;;;9.73;4.53;;;;;;;10.03;100.00;61873.00;5094473;28;20257;-73
2022/04/16 02:47:31;;;;;;;9.30;4.90;;;;;;;10.03;100.00;61878.06;5094572;28;20217;-74
2022/04/16 02:49:58;;;;;;;9.87;5.37;;;;;;;10.03;100.00;61873.00;5094386;28;20196;-72
2022/04/16 02:52:26;;;;;;;12.33;5.73;;;;;;;10.07;100.00;61879.81;5093072;28;20276;-73
2022/04/16 02:54:53;;;;;;;13.43;5.57;;;;;;;10.04;100.00;61874.59;5093853;28;20211;-73
2022/04/16 02:57:20;;;;;;;12.43;5.40;;;;;;;9.95;100.00;61864.41;5094115;28;20670;-74
2022/04/16 02:59:47;;;;;;;13.43;5.07;;;;;;;9.99;100.00;61873.78;5093570;28;20223;-71
2022/04/16 03:02:15;;;;;;;12.73;5.77;;;;;;;9.93;100.00;61867.38;5093676;28;20682;-72
2022/04/16 03:04:43;;;;;;;14.03;5.33;;;;;;;9.89;100.00;61863.09;5093540;28;20674;-71
2022/04/16 03:07:10;;;;;;;10.10;4.70;;;;;;;9.76;100.00;61846.63;5093991;28;20200;-71
2022/04/16 03:09:37;;;;;;;11.37;4.83;;;;;;;9.73;100.00;61838.31;5094093;28;20198;-71
2022/04/16 03:12:05;;;;;;;12.50;5.23;;;;;;;9.84;100.00;61855.19;5094016;28;20199;-73
2022/04/16 03:17:33;;;;;;;9.63;4.93;;;;;;;9.62;100.00;61829.09;5093761;28;20680;-72
2022/04/16 03:20:05;;;;;;;8.03;5.20;;;;;;;9.63;100.00;61830.72;5093879;28;20230;-72
2022/04/16 03:22:33;;;;;;;7.10;4.67;;;;;;;9.74;100.00;61841.94;5093556;28;20204;-74
2022/04/16 03:25:00;;;;;;;15.10;5.20;;;;;;;9.74;100.00;61847.03;5093347;28;20713;-72
2022/04/16 03:27:27;;;;;;;11.93;5.30;;;;;;;9.69;100.00;61839.13;5093174;28;20290;-72
2022/04/16 03:29:53;;;;;;;12.97;5.83;;;;;;;9.70;100.00;61838.19;5093013;28;20195;-72
2022/04/16 03:32:20;;;;;;;8.47;5.17;;;;;;;9.84;100.00;61855.72;5093547;28;20191;-72
2022/04/16 03:34:47;;;;;;;9.53;4.57;;;;;;;9.83;100.00;61857.19;5093178;28;20242;-72
2022/04/16 03:37:15;;;;;;;13.53;5.17;;;;;;;9.73;100.00;61840.88;5092259;28;20212;-71
2022/04/16 03:39:43;;;;;;;12.13;4.60;;;;;;;9.62;100.00;61829.63;5093110;28;20223;-71
2022/04/16 03:42:11;;;;;;;6.43;4.30;;;;;;;9.56;100.00;61828.28;5093209;28;20201;-72
2022/04/16 03:44:38;;;;;;;11.30;4.57;;;;;;;9.38;100.00;61803.44;5092884;28;20199;-72
2022/04/16 03:47:05;;;;;;;7.23;4.47;;;;;;;9.62;100.00;61831.66;5091723;28;20650;-72
2022/04/16 03:49:32;;;;;;;10.60;4.70;;;;;;;9.55;100.00;61826.69;5093024;28;20449;-71
2022/04/16 03:51:59;;;;;;;5.93;4.17;;;;;;;9.58;100.00;61825.34;5092898;28;20240;-72
2022/04/16 04:00:01;;;;;;;9.10;4.27;;;;;;;9.87;100.00;61861.47;5092590;28;20640;-72
2022/04/16 04:02:29;;;;;;;12.50;4.70;;;;;;;9.72;100.00;61839.81;5092614;28;20195;-72
2022/04/16 04:04:55;;;;;;;15.00;4.80;;;;;;;9.74;100.00;61847.56;5092075;28;20290;-71
2022/04/16 04:07:23;;;;;;;13.53;5.13;;;;;;;9.57;100.00;61823.75;5092842;28;20228;-72
2022/04/16 04:09:51;;;;;;;19.57;5.33;;;;;;;9.49;100.00;61820.28;5092389;28;20199;-72
2022/04/16 04:12:18;;;;;;;21.90;5.93;;;;;;;9.49;100.00;61815.72;5092670;28;20199;-72
2022/04/16 04:14:47;;;;;;;18.83;5.47;;;;;;;9.77;100.00;61847.69;5091938;28;20203;-73
2022/04/16 04:17:14;;;;;;;10.37;4.23;;;;;;;9.80;100.00;61848.91;5092437;28;20662;-72
2022/04/16 04:19:42;;;;;;;18.43;5.73;;;;;;;9.88;100.00;61862.03;5092491;28;20227;-72
2022/04/16 04:22:10;;;;;;;20.27;5.83;;;;;;;9.95;100.00;61869.50;5092481;28;20731;-72
2022/04/16 04:24:39;;;;;;;21.40;6.70;;;;;;;9.86;100.00;61860.41;5092087;28;20249;-72
2022/04/16 04:27:08;;;;;;;27.90;7.30;;;;;;;10.17;100.00;61890.53;5091883;28;20195;-72
2022/04/16 04:29:36;;;;;;;15.80;6.10;;;;;;;10.31;100.00;61902.44;5092182;28;20260;-72
2022/04/16 04:32:03;;;;;;;16.40;6.37;;;;;;;10.23;100.00;61893.88;5092334;28;20203;-71
2022/04/16 04:34:30;;;;;;;15.60;5.50;;;;;;;10.47;100.00;61925.22;5093216;28;20261;-72
2022/04/16 04:36:57;;;;;;;17.40;5.53;;;;;;;10.77;100.00;61952.28;5092514;28;20261;-72
2022/04/16 04:39:23;;;;;;;12.83;5.93;;;;;;;10.78;100.00;61957.91;5092038;28;20223;-73
2022/04/16 04:41:50;;;;;;;20.80;8.23;;;;;;;10.63;100.00;61939.81;5091912;28;20196;-71
2022/04/16 04:44:18;;;;;;;19.77;7.70;;;;;;;10.82;100.00;61957.63;5091872;28;20249;-71
2022/04/16 04:46:45;;;;;;;16.50;7.77;;;;;;;10.76;100.00;61955.75;5091710;28;20212;-73
2022/04/16 04:49:12;;;;;;;13.23;7.43;;;;;;;10.82;100.00;61959.63;5092097;28;20196;-73
2022/04/16 04:51:40;;;;;;;17.57;7.63;;;;;;;10.65;100.00;61941.97;5092190;28;20572;-72
2022/04/16 04:54:08;;;;;;;14.63;7.60;;;;;;;10.80;100.00;61955.50;5091714;28;20196;-72
2022/04/16 04:56:35;;;;;;;18.07;8.00;;;;;;;10.83;100.00;61963.78;5091613;28;20241;-72
2022/04/16 04:59:02;;;;;;;19.07;8.37;;;;;;;11.01;100.00;61977.44;5091731;28;20200;-71
2022/04/16 05:01:30;;;;;;;13.37;7.97;;;;;;;11.22;100.00;61999.41;5091585;28;20196;-72
2022/04/16 05:03:57;;;;;;;12.30;8.10;;;;;;;11.08;100.00;61987.50;5091567;28;20678;-74
2022/04/16 05:06:24;;;;;;;16.73;8.13;;;;;;;11.30;100.00;62013.09;5091631;28;20199;-73
2022/04/16 05:08:52;;;;;;;12.83;7.27;;;;;;;11.40;100.00;62023.81;5091416;28;20268;-73
2022/04/16 05:11:19;;;;;;;16.00;7.03;;;;;;;11.26;100.00;62006.25;5091594;28;20199;-72
2022/04/16 05:13:46;;;;;;;13.37;6.97;;;;;;;10.97;100.00;61973.69;5091303;28;20283;-72
2022/04/16 05:16:13;;;;;;;12.20;7.13;;;;;;;11.31;100.00;62009.09;5092583;28;20273;-72
2022/04/16 05:18:42;;;;;;;10.77;6.63;;;;;;;11.67;100.00;62050.25;5095654;28;20231;-72
2022/04/16 05:21:09;;;;;;;15.03;6.73;;;;;;;11.52;100.00;62037.22;5095809;28;20279;-72
2022/04/16 05:23:39;;;;;;;10.63;5.97;;;;;;;11.41;100.00;62019.81;5095678;28;20256;-73
2022/04/16 05:26:07;;;;;;;15.33;5.77;;;;;;;11.15;100.00;61991.94;5095867;28;20573;-72
2022/04/16 05:28:33;;;;;;;13.97;5.80;;;;;;;11.76;100.00;62054.78;5095381;28;20523;-73
2022/04/16 05:31:02;;;;;;;14.60;6.53;;;;;;;11.99;100.00;62082.03;5095867;28;20712;-72
2022/04/16 05:36:15;;;;;;;12.13;6.10;;;;;;;12.49;100.00;62135.69;5095569;28;20210;-71
2022/04/16 05:38:42;;;;;;;19.47;6.87;;;;;;;12.60;100.00;62146.94;5095104;28;20199;-72
2022/04/16 05:41:09;;;;;;;19.47;7.53;;;;;;;12.69;100.00;62162.25;5095397;28;20371;-72
2022/04/16 05:43:36;;;;;;;22.30;8.07;;;;;;;12.65;100.00;62155.41;5095054;28;20199;-73
2022/04/16 05:46:04;;;;;;;14.27;8.10;;;;;;;12.53;100.00;62137.41;5095431;28;20253;-73
2022/04/16 05:48:31;;;;;;;23.10;8.07;;;;;;;12.56;100.00;62140.63;5094959;28;20655;-72
2022/04/16 05:50:58;;;;;;;13.50;7.57;;;;;;;12.78;100.00;62168.28;5095260;28;20195;-72
2022/04/16 05:53:27;;;;;;;18.80;6.97;;;;;;;12.90;100.00;62179.16;5094768;28;20644;-71
2022/04/16 05:55:54;;;;;;;11.80;6.70;;;;;;;13.22;100.00;62218.13;5095181;28;20199;-72
2022/04/16 05:58:21;;;;;;;12.07;6.80;;;;;;;13.48;100.00;62241.47;5095070;28;20257;-71
2022/04/16 06:00:49;;;;;;;16.87;7.93;;;;;;;13.72;100.00;62266.19;5094573;28;20227;-72
2022/04/16 06:03:16;;;;;;;20.07;7.70;;;;;;;13.65;100.00;62259.19;5094637;28;20199;-72
2022/04/16 06:05:43;;;;;;;20.40;7.23;;;;;;;13.98;100.00;62294.66;5094504;28;20203;-71
2022/04/16 06:08:10;;;;;;;14.70;7.73;;;;;;;14.00;100.00;62298.84;5094321;28;20200;-73
2022/04/16 06:10:40;;;;;;;18.27;7.23;;;;;;;14.27;100.00;62328.41;5094689;28;20642;-72
2022/04/16 06:13:08;;;;;;;20.03;7.27;;;;;;;14.52;100.00;62354.22;5094734;28;20203;-72
2022/04/16 06:15:35;;;;;;;20.00;7.33;;;;;;;14.68;100.00;62371.97;5094760;28;20269;-72
2022/04/16 06:18:02;;;;;;;16.10;7.63;;;;;;;14.83;100.00;62385.03;5094539;28;20200;-72
2022/04/16 06:20:29;;;;;;;25.80;7.57;;;;;;;15.01;100.00;62406.94;5094257;28;20612;-72
2022/04/16 06:22:56;;;;;;;21.40;7.90;;;;;;;14.68;100.00;62368.88;5094383;28;20665;-72
2022/04/16 06:25:24;;;;;;;13.23;6.97;;;;;;;15.23;100.00;62428.06;5094513;28;20264;-71
2022/04/16 06:27:52;;;;;;;21.97;6.73;;;;;;;15.76;100.00;62487.69;5094076;28;20200;-72
2022/04/16 06:30:20;;;;;;;16.10;7.30;;;;;;;15.92;100.00;62506.94;5094257;28;20678;-71
2022/04/16 06:32:48;;;;;;;17.50;7.53;;;;;;;16.26;100.00;62535.34;5094122;28;20199;-71
2022/04/16 06:35:15;;;;;;;18.73;7.90;;;;;;;16.51;100.00;62567.41;5094412;28;20227;-72
2022/04/16 06:37:42;;;;;;;18.20;7.20;;;;;;;16.56;99.75;62570.25;5094320;28;20276;-72
2022/04/16 06:40:10;;;;;;;22.57;7.70;;;;;;;17.07;99.23;62625.19;5094202;28;20581;-71
2022/04/16 06:42:38;;;;;;;11.80;7.67;;;;;;;17.30;95.87;62646.88;5098826;28;20199;-72
2022/04/16 06:45:09;;;;;;;16.13;8.77;;;;;;;16.71;91.55;62576.09;5094092;28;20195;-72
2022/04/16 06:47:36;;;;;;;17.67;7.63;;;;;;;17.25;83.65;62636.88;5094066;28;20241;-73
2022/04/16 06:50:05;;;;;;;14.27;7.77;;;;;;;17.88;80.41;62714.06;5094169;28;20223;-73
2022/04/16 06:52:32;;;;;;;12.50;6.17;;;;;;;18.07;73.28;62732.00;5094176;28;20196;-72
2022/04/16 06:54:59;;;;;;;19.20;5.80;;;;;;;18.23;68.18;62746.69;5093909;28;20272;-72
2022/04/16 06:57:27;;;;;;;14.23;4.83;;;;;;;17.93;65.27;62716.91;5093791;28;20196;-72
2022/04/16 06:59:54;;;;;;;11.00;4.70;;;;;;;17.88;63.77;62711.50;5093526;28;20269;-74
2022/04/16 07:02:22;;;;;;;11.63;4.47;;;;;;;17.84;62.35;62707.19;5093584;28;20199;-72
2022/04/16 07:04:49;;;;;;;11.10;5.03;;;;;;;17.37;63.67;62657.00;5092406;28;20585;-72
2022/04/16 07:07:16;;;;;;;10.10;4.83;;;;;;;18.17;63.38;62743.31;5093918;28;20195;-73
2022/04/16 07:09:43;;;;;;;8.60;4.73;;;;;;;18.41;67.37;62773.88;5093326;28;20248;-73
2022/04/16 07:12:11;;;;;;;9.10;4.67;;;;;;;18.44;61.51;62766.78;5093528;28;20665;-73
2022/04/16 07:14:38;;;;;;;7.67;4.83;;;;;;;18.20;59.96;62746.03;5093341;28;20261;-72
2022/04/16 07:17:06;;;;;;;13.87;4.97;;;;;;;18.32;60.96;62759.53;5093148;28;20219;-72
2022/04/16 07:19:35;;;;;;;12.07;4.73;;;;;;;18.73;59.08;62803.28;5092808;28;20265;-73
2022/04/16 07:22:02;;;;;;;13.87;5.40;;;;;;;18.90;56.38;62821.06;5093159;28;20235;-73
2022/04/16 07:24:29;;;;;;;12.93;5.00;;;;;;;19.14;55.53;62847.53;5092833;28;20200;-72
2022/04/16 07:26:56;;;;;;;9.27;4.63;;;;;;;19.47;54.60;62882.13;5092930;28;20634;-73
2022/04/16 07:29:24;;;;;;;7.77;5.00;;;;;;;19.72;54.36;62909.16;5092964;28;20203;-73
2022/04/16 07:31:51;;;;;;;15.73;4.87;;;;;;;19.75;53.36;62912.38;5093657;28;20196;-73
2022/04/16 07:34:20;;;;;;;10.00;5.63;;;;;;;20.10;54.43;62950.22;5094532;28;20288;-71
2022/04/16 07:36:48;;;;;;;10.07;5.40;;;;;;;20.34;54.64;62976.22;5093001;28;20195;-72
2022/04/16 07:39:16;;;;;;;8.63;5.33;;;;;;;19.99;53.35;62930.56;5092353;28;20261;-73
2022/04/16 07:41:43;;;;;;;10.27;5.47;;;;;;;20.05;55.87;62944.81;5093092;28;20223;-72
2022/04/16 07:44:09;;;;;;;11.10;5.40;;;;;;;19.60;55.62;62896.72;5092890;28;20196;-72
2022/04/16 07:46:37;;;;;;;8.00;5.00;;;;;;;19.49;56.79;62886.88;5092857;28;20643;-72
2022/04/16 07:49:05;;;;;;;16.03;5.60;;;;;;;19.76;60.02;62914.00;5092797;28;20249;-72
2022/04/16 07:51:31;;;;;;;15.53;5.77;;;;;;;19.77;57.69;62914.56;5092540;28;20195;-73
2022/04/16 07:53:59;;;;;;;10.53;5.57;;;;;;;20.09;57.50;62949.69;5092348;28;20218;-71
2022/04/16 07:56:27;;;;;;;10.33;5.03;;;;;;;20.15;56.15;62955.63;5092537;28;20249;-72
2022/04/16 07:58:55;;;;;;;7.47;5.30;;;;;;;19.58;56.27;62899.19;5091218;28;20215;-72
2022/04/16 08:01:22;;;;;;;7.90;4.87;;;;;;;19.35;58.32;62875.44;5092043;28;20746;-72
2022/04/16 08:03:49;;;;;;;10.27;4.97;;;;;;;19.03;58.31;62835.13;5092069;28;20682;-71
2022/04/16 08:06:16;;;;;;;11.37;5.37;;;;;;;19.29;58.96;62861.19;5092113;28;20249;-71
2022/04/16 08:08:43;;;;;;;13.57;5.10;;;;;;;19.51;60.81;62889.03;5091894;28;20199;-71
2022/04/16 08:11:12;;;;;;;15.40;4.93;;;;;;;19.28;59.68;62862.13;5092494;28;20252;-73
2022/04/16 08:13:41;;;;;;;8.80;5.23;;;;;;;18.95;58.97;62826.50;5098982;28;20200;-72
2022/04/16 08:16:08;;;;;;;12.73;4.60;;;;;;;18.85;60.26;62811.06;5096684;28;20265;-71
2022/04/16 08:18:36;;;;;;;7.00;5.10;;;;;;;18.79;61.53;62809.75;5092202;28;20673;-73
2022/04/16 08:21:04;;;;;;;7.40;5.10;;;;;;;18.78;62.68;62808.66;5092026;28;20227;-73
2022/04/16 08:23:33;;;;;;;10.97;6.10;;;;;;;18.95;62.55;62823.91;5092085;28;20208;-73
2022/04/16 08:26:00;;;;;;;8.27;4.40;;;;;;;19.21;61.54;62859.72;5092284;28;20287;-72
2022/04/16 08:28:29;;;;;;;12.43;5.33;;;;;;;19.34;61.62;62864.00;5092102;28;20196;-73
2022/04/16 08:30:56;;;;;;;12.40;5.40;;;;;;;19.50;61.63;62885.91;5091532;28;20670;-73
2022/04/16 08:33:23;;;;;;;7.87;4.70;;;;;;;19.35;60.02;62869.72;5091987;28;20253;-73
2022/04/16 08:35:50;;;;;;;11.77;4.80;;;;;;;19.08;59.18;62838.47;5091873;28;20712;-72
2022/04/16 08:38:17;;;;;;;13.57;5.60;;;;;;;19.02;62.46;62834.59;5092474;28;20551;-73
2022/04/16 08:40:45;;;;;;;8.50;5.33;;;;;;;19.33;63.30;62868.09;5091883;28;20223;-72
2022/04/16 08:43:13;;;;;;;9.60;5.73;;;;;;;19.77;59.73;62911.97;5092240;28;20327;-72
2022/04/16 08:45:41;;;;;;;14.30;5.50;;;;;;;20.31;58.56;62967.78;5092048;28;20199;-72
2022/04/16 08:48:10;;;;;;;8.97;5.43;;;;;;;20.61;56.98;63002.25;5091771;28;20225;-72
2022/04/16 08:50:37;;;;;;;10.80;4.93;;;;;;;20.48;54.85;62988.22;5091217;28;20203;-72
2022/04/16 08:53:04;;;;;;;10.87;5.00;;;;;;;21.01;54.34;63051.28;5091759;28;20252;-73
2022/04/16 08:55:31;;;;;;;12.43;4.93;;;;;;;21.30;53.35;63079.53;5091784;28;20249;-72
2022/04/16 08:58:00;;;;;;;10.57;6.70;;;;;;;21.48;51.72;63096.44;5091442;28;20200;-73
2022/04/16 09:00:26;;;;;;;11.87;5.30;;;;;;;21.18;52.16;63063.41;5091481;28;20256;-72
2022/04/16 09:02:57;;;;;;;8.43;4.77;;;;;;;20.60;53.53;62999.16;5091683;28;20199;-72
2022/04/16 09:05:26;;;;;;;8.53;5.60;;;;;;;20.56;52.98;63002.59;5091890;28;20272;-72
2022/04/16 09:07:55;;;;;;;7.23;4.60;;;;;;;19.89;54.31;62927.53;5091247;28;20658;-72
2022/04/16 09:10:22;;;;;;;13.30;5.30;;;;;;;20.11;54.24;62951.31;5091614;28;20282;-72
2022/04/16 09:12:59;;;;;;;11.70;5.50;;;;;;;20.05;52.37;62947.41;5091383;28;20199;-72
2022/04/16 09:15:27;;;;;;;8.97;5.17;;;;;;;20.36;53.19;62980.41;5091245;28;20215;-72
2022/04/16 09:18:00;;;;;;;14.33;4.90;;;;;;;20.63;52.21;63004.97;5091161;28;20199;-73
2022/04/16 09:20:36;;;;;;;10.37;5.60;;;;;;;21.78;51.75;63131.50;5091513;28;20230;-72
2022/04/16 09:23:04;;;;;;;8.63;5.20;;;;;;;22.12;49.84;63167.78;5091680;28;20233;-73
2022/04/16 09:25:31;;;;;;;7.73;4.97;;;;;;;21.80;49.70;63133.13;5091332;28;20260;-73
2022/04/16 09:28:07;;;;;;;9.20;5.10;;;;;;;22.27;49.08;63184.03;5090732;28;20715;-72
2022/04/16 09:30:34;;;;;;;9.70;4.97;;;;;;;22.57;46.14;63216.56;5091229;28;20281;-72
2022/04/16 09:33:05;;;;;;;9.97;5.23;;;;;;;22.56;46.87;63212.31;5091159;28;20757;-73
2022/04/16 09:35:35;;;;;;;10.73;5.50;;;;;;;22.58;45.04;63217.63;5091335;28;20734;-73
2022/04/16 09:38:04;;;;;;;11.27;4.97;;;;;;;22.65;44.95;63225.25;5091096;28;20199;-73
2022/04/16 09:40:33;;;;;;;13.23;5.20;;;;;;;23.01;45.44;63266.31;5091041;28;20195;-73
2022/04/16 09:43:02;;;;;;;9.47;4.87;;;;;;;22.80;46.47;63240.41;5091224;28;20196;-73
2022/04/16 09:45:30;;;;;;;10.43;4.93;;;;;;;22.54;46.83;63213.28;5091425;28;20203;-72
2022/04/16 09:47:57;;;;;;;11.63;4.90;;;;;;;22.26;46.83;63179.81;5091329;28;20264;-73
2022/04/16 09:50:29;;;;;;;11.90;4.63;;;;;;;22.90;45.88;63256.44;5091534;28;20196;-71
2022/04/16 09:52:58;;;;;;;11.73;4.90;;;;;;;22.98;43.86;63259.91;5091056;28;20282;-71
2022/04/16 09:55:25;;;;;;;11.40;4.90;;;;;;;22.61;44.26;63220.91;5091593;28;20204;-72
2022/04/16 09:57:57;;;;;;;10.37;4.80;;;;;;;22.66;45.18;63226.31;5091087;28;20203;-72
2022/04/16 10:00:26;;;;;;;7.07;4.90;;;;;;;23.17;46.74;63280.50;5091417;28;20196;-73
2022/04/16 10:02:56;;;;;;;8.40;5.23;;;;;;;23.08;43.94;63268.16;5093479;28;20227;-72
2022/04/16 10:05:23;;;;;;;11.63;5.27;;;;;;;23.31;43.32;63290.47;5096519;28;20199;-72
2022/04/16 10:07:53;;;;;;;10.67;5.07;;;;;;;23.45;43.72;63310.88;5094939;28;20200;-72
2022/04/16 10:10:25;;;;;;;9.23;4.93;;;;;;;23.54;42.59;63320.66;5094962;28;20196;-74
2022/04/16 10:13:04;;;;;;;8.30;4.87;;;;;;;23.06;41.97;63263.38;5094791;28;20303;-72
2022/04/16 10:15:42;;;;;;;10.87;5.40;;;;;;;22.99;41.91;63258.41;5094787;28;20219;-72
2022/04/16 10:18:12;;;;;;;9.23;5.00;;;;;;;22.99;43.99;63266.19;5094641;28;20682;-73
2022/04/16 10:20:50;;;;;;;9.57;5.40;;;;;;;22.82;44.38;63240.50;5094594;28;20580;-73
2022/04/16 10:23:28;;;;;;;11.73;5.67;;;;;;;22.66;43.74;63226.31;5094391;28;20587;-72
2022/04/16 10:26:02;;;;;;;15.00;5.20;;;;;;;23.17;45.93;63275.84;5094347;28;20291;-74
2022/04/16 10:28:37;;;;;;;11.70;5.07;;;;;;;22.93;46.01;63252.44;5094296;28;20278;-72
2022/04/16 10:31:05;;;;;;;8.60;5.20;;;;;;;22.62;44.85;63221.44;5094036;28;20205;-72
2022/04/16 10:33:32;;;;;;;9.00;5.33;;;;;;;22.75;45.48;63234.97;5093853;28;20199;-71
2022/04/16 10:36:01;;;;;;;12.03;5.37;;;;;;;23.30;46.07;63294.59;5094105;28;20192;-71
2022/04/16 10:38:36;;;;;;;9.27;5.60;;;;;;;23.39;45.34;63304.38;5094431;28;20205;-73
2022/04/16 10:41:11;;;;;;;11.40;4.70;;;;;;;23.52;44.21;63318.47;5093996;28;20249;-72
2022/04/16 10:43:38;;;;;;;8.40;4.73;;;;;;;23.17;49.63;63278.44;5094082;28;20195;-73
2022/04/16 10:46:06;;;;;;;12.73;5.70;;;;;;;23.02;46.96;63264.78;5094105;28;20253;-73
2022/04/16 10:48:36;;;;;;;15.63;5.37;;;;;;;22.49;46.19;63207.88;5093943;28;20609;-73
2022/04/16 10:51:04;;;;;;;9.27;5.33;;;;;;;23.45;48.29;63305.69;5094195;28;20199;-72
2022/04/16 10:53:35;;;;;;;9.47;5.17;;;;;;;23.42;46.54;63307.63;5093873;28;20196;-72
2022/04/16 10:56:12;;;;;;;10.10;4.83;;;;;;;23.23;48.29;63292.22;5093814;28;20689;-74
2022/04/16 10:58:41;;;;;;;9.00;4.77;;;;;;;23.48;47.95;63314.16;5093739;28;20636;-72
2022/04/16 11:01:10;;;;;;;9.10;4.23;;;;;;;23.72;47.06;63340.19;5093568;28;20200;-73
2022/04/16 11:03:46;;;;;;;10.33;4.60;;;;;;;23.66;46.43;63333.66;5094059;28;20201;-72
2022/04/16 11:06:13;;;;;;;12.80;4.60;;;;;;;23.51;45.76;63312.19;5093674;28;20202;-74
2022/04/16 11:08:42;;;;;;;12.87;4.60;;;;;;;23.49;45.63;63315.22;5093744;28;20675;-73
2022/04/16 11:11:10;;;;;;;8.40;4.73;;;;;;;22.91;46.62;63252.88;5093495;28;20741;-73
2022/04/16 11:13:40;;;;;;;10.90;4.77;;;;;;;22.78;46.65;63233.03;5092474;28;20257;-72
2022/04/16 11:16:09;;;;;;;10.90;4.20;;;;;;;23.01;48.88;63257.97;5093258;28;20264;-74
2022/04/16 11:18:41;;;;;;;7.87;4.73;;;;;;;23.34;48.88;63296.38;5093071;28;20191;-73
2022/04/16 11:21:09;;;;;;;9.77;4.57;;;;;;;23.48;47.77;63311.53;5093154;28;20283;-73
2022/04/16 11:23:46;;;;;;;11.90;4.67;;;;;;;23.62;48.10;63329.34;5093272;28;20245;-71
2022/04/16 11:34:30;;;;;;;8.43;4.70;;;;;;;25.08;44.58;63486.72;5093692;28;20240;-73
2022/04/16 11:36:58;;;;;;;13.70;4.50;;;;;;;25.49;43.75;63531.28;5093137;28;20576;-73
2022/04/16 11:39:30;;;;;;;5.93;4.70;;;;;;;25.28;42.02;63513.09;5093263;28;20283;-72
2022/04/16 11:41:59;;;;;;;17.37;5.37;;;;;;;24.08;42.92;63376.66;5093114;28;20272;-71
2022/04/16 11:44:34;;;;;;;8.87;4.83;;;;;;;23.75;44.97;63343.41;5093283;28;20228;-74
2022/04/16 11:47:02;;;;;;;7.07;4.37;;;;;;;23.91;45.57;63358.16;5092745;28;20207;-72
2022/04/16 11:49:31;;;;;;;8.23;4.50;;;;;;;24.17;44.88;63391.59;5092961;28;20220;-72
2022/04/16 11:51:58;;;;;;;11.83;5.17;;;;;;;24.25;45.30;63395.06;5093636;28;20208;-72